Time;durP1;ratioP1;P1;durP2;ratioP2;P2;SDS_P1;SDS_P2;PMS_P1;PMS_P2;Temp;Humidity;BMP_temperature;BMP_pressure;BME280_temperature;BME280_humidity;BME280_pressure;Samples;Min_cycle;Max_cycle;Signal;HPM_P1;HPM_P2
2022/02/08 00:01:13;;;;;;;3.17;1.07;;;;;;;4.72;100.00;100112.41;4907288;29;20192;-78
2022/02/08 00:03:40;;;;;;;3.90;1.23;;;;;;;4.68;100.00;100127.03;4923596;29;20210;-79
2022/02/08 00:08:52;;;;;;;2.80;1.10;;;;;;;4.83;100.00;100113.88;4924576;29;20185;-82
2022/02/08 00:11:19;;;;;;;2.10;1.20;;;;;;;4.81;100.00;100126.47;4906317;29;20333;-79
2022/02/08 00:13:45;;;;;;;4.80;1.20;;;;;;;4.79;100.00;100123.19;4906181;29;20494;-80
2022/02/08 00:16:12;;;;;;;5.10;1.30;;;;;;;4.79;100.00;100131.97;4921417;29;20197;-79
2022/02/08 00:18:39;;;;;;;3.10;1.27;;;;;;;4.62;100.00;100138.31;4905281;29;20198;-78
2022/02/08 00:21:06;;;;;;;4.23;1.50;;;;;;;4.59;100.00;100128.03;4904620;29;20189;-80
2022/02/08 00:23:32;;;;;;;2.67;1.00;;;;;;;4.59;100.00;100140.47;4920212;29;20194;-79
2022/02/08 00:25:59;;;;;;;2.33;1.00;;;;;;;4.65;100.00;100158.38;4920954;29;20281;-79
2022/02/08 00:28:26;;;;;;;5.23;1.40;;;;;;;4.54;100.00;100161.38;4920923;29;20238;-78
2022/02/08 00:30:52;;;;;;;3.80;1.20;;;;;;;4.58;100.00;100149.44;4904391;29;20194;-80
2022/02/08 00:33:19;;;;;;;5.70;1.37;;;;;;;4.58;100.00;100158.22;4919784;29;20238;-80
2022/02/08 00:35:46;;;;;;;3.10;1.60;;;;;;;4.67;100.00;100151.06;4920632;29;20669;-79
2022/02/08 00:38:13;;;;;;;2.93;1.80;;;;;;;4.58;100.00;100160.88;4934944;29;20205;-79
2022/02/08 00:40:39;;;;;;;2.97;1.47;;;;;;;4.64;100.00;100170.00;4904323;29;20468;-79
2022/02/08 00:43:08;;;;;;;4.27;1.47;;;;;;;4.55;100.00;100163.88;4903295;29;20198;-79
2022/02/08 00:45:49;;;;;;;4.57;1.57;;;;;;;4.58;100.00;100152.91;4934598;29;20269;-78
2022/02/08 00:49:00;;;;;;;4.57;1.33;;;;;;;4.63;100.00;100171.81;4919232;29;20230;-78
2022/02/08 00:51:06;;;;;;;4.87;1.80;;;;;;;4.62;100.00;100172.81;4911752;29;20242;-78
2022/02/08 00:53:33;;;;;;;2.63;1.20;;;;;;;4.53;100.00;100157.88;4903075;29;20245;-81
2022/02/08 00:56:00;;;;;;;4.57;1.67;;;;;;;4.56;100.00;100172.66;4903511;29;20198;-78
2022/02/08 00:58:27;;;;;;;2.87;1.20;;;;;;;4.65;100.00;100150.44;4903026;29;20194;-79
2022/02/08 01:00:55;;;;;;;2.83;1.40;;;;;;;4.57;100.00;100166.38;4902578;29;20597;-80
2022/02/08 01:03:22;;;;;;;3.37;1.63;;;;;;;4.47;100.00;100153.28;4919614;29;20277;-79
2022/02/08 01:05:55;;;;;;;4.43;1.53;;;;;;;4.55;100.00;100169.19;4918388;29;20201;-81
2022/02/08 01:08:28;;;;;;;5.07;1.33;;;;;;;4.52;100.00;100160.72;4918534;29;20191;-81
2022/02/08 01:10:55;;;;;;;4.13;1.30;;;;;;;4.46;100.00;100158.75;4919618;29;20181;-80
2022/02/08 01:13:23;;;;;;;4.97;1.60;;;;;;;4.46;100.00;100162.22;4933920;29;20217;-81
2022/02/08 01:15:50;;;;;;;5.27;1.53;;;;;;;4.46;100.00;100174.66;4919611;29;20182;-79
2022/02/08 01:18:17;;;;;;;3.40;1.60;;;;;;;4.46;100.00;100161.41;4919523;29;20476;-78
2022/02/08 01:20:44;;;;;;;4.50;1.50;;;;;;;4.40;100.00;100186.75;4919763;29;20253;-80
2022/02/08 01:23:11;;;;;;;3.80;1.60;;;;;;;4.39;100.00;100183.28;4934434;29;20223;-79
2022/02/08 01:25:49;;;;;;;5.33;1.60;;;;;;;4.33;100.00;100181.31;4902633;29;20511;-80
2022/02/08 01:28:36;;;;;;;2.57;1.50;;;;;;;4.46;100.00;100187.94;4917202;29;20209;-80
2022/02/08 01:31:07;;;;;;;6.40;2.00;;;;;;;4.35;100.00;100192.56;4906015;29;20586;-80
2022/02/08 01:34:03;;;;;;;4.13;1.60;;;;;;;4.38;100.00;100197.56;4918883;29;20681;-79
2022/02/08 01:36:38;;;;;;;5.73;1.67;;;;;;;4.42;100.00;100193.56;4890153;29;20273;-78
2022/02/08 01:39:14;;;;;;;4.57;1.57;;;;;;;4.41;100.00;100196.38;4902656;29;20225;-82
2022/02/08 01:44:46;;;;;;;3.20;1.27;;;;;;;4.34;100.00;100196.22;4921361;29;20700;-81
2022/02/08 01:47:28;;;;;;;3.67;1.60;;;;;;;4.40;100.00;100200.03;4934244;29;20607;-80
2022/02/08 01:50:00;;;;;;;2.27;1.30;;;;;;;4.32;100.00;100208.81;4919479;29;20512;-78
2022/02/08 01:52:27;;;;;;;4.37;1.60;;;;;;;4.40;100.00;100214.13;4902553;29;20221;-79
2022/02/08 01:54:56;;;;;;;1.97;1.20;;;;;;;4.40;100.00;100219.44;4902657;29;20242;-82
2022/02/08 01:57:23;;;;;;;3.77;1.37;;;;;;;4.47;100.00;100218.78;4902551;29;20586;-79
2022/02/08 01:59:52;;;;;;;2.67;1.30;;;;;;;4.44;100.00;100228.72;4918693;29;20190;-79
2022/02/08 02:02:18;;;;;;;2.83;1.20;;;;;;;4.37;100.00;100235.69;4902359;29;20198;-79
2022/02/08 02:04:47;;;;;;;3.43;1.33;;;;;;;4.50;100.00;100231.69;4918326;29;20198;-79
2022/02/08 02:07:17;;;;;;;2.93;1.37;;;;;;;4.48;100.00;100237.16;4903102;29;20266;-80
2022/02/08 02:09:45;;;;;;;3.80;1.30;;;;;;;4.39;100.00;100225.72;4902403;29;20242;-78
2022/02/08 02:12:18;;;;;;;3.43;1.50;;;;;;;4.44;100.00;100234.03;4902325;29;20218;-79
2022/02/08 02:14:45;;;;;;;2.63;1.30;;;;;;;4.38;100.00;100242.66;4934074;29;20614;-78
2022/02/08 02:17:12;;;;;;;2.87;1.40;;;;;;;4.53;100.00;100253.41;4902611;29;20206;-79
2022/02/08 02:19:41;;;;;;;4.53;1.60;;;;;;;4.51;100.00;100252.78;4934255;29;20756;-78
2022/02/08 02:22:08;;;;;;;3.33;1.30;;;;;;;4.50;100.00;100253.75;4918281;29;20213;-80
2022/02/08 02:24:37;;;;;;;2.77;1.20;;;;;;;4.51;100.00;100270.53;4902649;29;20217;-79
2022/02/08 02:27:06;;;;;;;3.17;1.20;;;;;;;4.43;100.00;100261.53;4934585;29;20190;-78
2022/02/08 02:29:33;;;;;;;2.70;1.50;;;;;;;4.52;100.00;100277.50;4902544;29;20198;-80
2022/02/08 02:32:01;;;;;;;2.67;1.20;;;;;;;4.54;100.00;100278.13;4902424;29;20218;-80
2022/02/08 02:34:30;;;;;;;4.03;1.60;;;;;;;4.43;100.00;100288.06;4902416;29;20202;-80
2022/02/08 02:36:59;;;;;;;3.13;1.40;;;;;;;4.53;100.00;100287.91;4902501;29;20301;-79
2022/02/08 02:39:28;;;;;;;2.00;1.40;;;;;;;4.56;100.00;100300.88;4902539;29;20614;-79
2022/02/08 02:41:56;;;;;;;3.13;1.50;;;;;;;4.44;100.00;100292.41;4933358;29;20589;-80
2022/02/08 02:44:24;;;;;;;2.40;1.40;;;;;;;4.33;100.00;100313.94;4917944;29;20192;-80
2022/02/08 02:46:52;;;;;;;3.00;1.73;;;;;;;4.36;100.00;100299.53;4902865;29;20206;-78
2022/02/08 02:49:19;;;;;;;2.40;1.50;;;;;;;4.38;100.00;100311.66;4902761;29;20237;-80
2022/02/08 02:51:46;;;;;;;3.40;1.53;;;;;;;4.44;100.00;100316.28;4902402;29;20554;-81
2022/02/08 02:54:16;;;;;;;3.57;1.83;;;;;;;4.42;100.00;100310.31;4903001;29;20494;-78
2022/02/08 02:56:47;;;;;;;4.30;1.90;;;;;;;4.47;100.00;100309.81;4902620;29;20560;-79
2022/02/08 02:59:18;;;;;;;4.43;1.90;;;;;;;4.50;100.00;100316.63;4887555;29;20209;-80
2022/02/08 03:02:28;;;;;;;3.33;1.90;;;;;;;4.56;100.00;100308.00;4887890;29;20201;-79
2022/02/08 03:05:02;;;;;;;3.70;1.80;;;;;;;4.56;100.00;100322.13;4889739;29;20199;-79
2022/02/08 03:18:36;;;;;;;5.13;1.83;;;;;;;4.53;100.00;100317.13;4902599;29;20201;-79
2022/02/08 03:21:07;;;;;;;3.77;1.80;;;;;;;4.60;100.00;100320.78;4918043;29;20206;-79
2022/02/08 03:23:35;;;;;;;5.77;2.00;;;;;;;4.62;100.00;100318.78;4902485;29;20195;-79
2022/02/08 03:26:03;;;;;;;4.77;1.73;;;;;;;4.64;100.00;100322.13;4904526;29;20194;-79
2022/02/08 03:28:35;;;;;;;3.90;1.53;;;;;;;4.60;100.00;100309.34;4905193;29;20195;-78
2022/02/08 03:31:04;;;;;;;3.07;1.80;;;;;;;4.61;100.00;100311.84;4921284;29;20251;-81
2022/02/08 03:33:33;;;;;;;4.20;1.77;;;;;;;4.59;100.00;100305.84;4936770;29;20202;-79
2022/02/08 03:36:04;;;;;;;4.53;2.10;;;;;;;4.48;100.00;100321.28;4905336;29;20194;-78
2022/02/08 03:38:38;;;;;;;3.20;1.63;;;;;;;4.48;100.00;100314.13;4920587;29;20194;-79
2022/02/08 03:41:09;;;;;;;4.20;2.00;;;;;;;4.48;100.00;100324.72;4905337;29;20198;-78
2022/02/08 03:43:43;;;;;;;4.07;1.80;;;;;;;4.51;100.00;100323.59;4905398;29;20281;-79
2022/02/08 03:46:15;;;;;;;3.50;1.90;;;;;;;4.42;100.00;100326.25;4936543;29;20206;-80
2022/02/08 03:48:44;;;;;;;4.27;1.80;;;;;;;4.43;100.00;100327.88;4921065;29;20708;-79
2022/02/08 03:51:14;;;;;;;3.00;1.70;;;;;;;4.35;100.00;100313.78;4920679;29;20213;-79
2022/02/08 03:53:47;;;;;;;3.17;1.53;;;;;;;4.47;100.00;100344.31;4889048;29;20250;-78
2022/02/08 03:56:22;;;;;;;4.40;1.80;;;;;;;4.50;100.00;100337.84;4905121;29;20232;-79
2022/02/08 03:58:55;;;;;;;3.07;1.80;;;;;;;4.50;100.00;100345.81;4904262;29;20245;-78
2022/02/08 04:06:31;;;;;;;4.13;2.10;;;;;;;4.54;100.00;100358.59;4901742;29;20398;-81
2022/02/08 04:09:00;;;;;;;4.17;1.80;;;;;;;4.54;100.00;100371.03;4916528;29;20194;-79
2022/02/08 04:11:27;;;;;;;5.43;2.17;;;;;;;4.63;100.00;100372.69;4901910;29;20203;-79
2022/02/08 04:14:03;;;;;;;3.17;1.70;;;;;;;4.55;100.00;100365.56;4903024;29;20617;-79
2022/02/08 04:16:35;;;;;;;4.63;2.00;;;;;;;4.48;100.00;100366.38;4917674;29;20287;-80
2022/02/08 04:43:10;;;;;;;4.50;1.70;;;;;;;4.36;100.00;100374.63;4915220;29;20175;-80
2022/02/08 04:45:45;;;;;;;3.23;1.70;;;;;;;4.33;100.00;100377.63;4901964;29;20634;-78
2022/02/08 04:50:56;;;;;;;4.77;2.00;;;;;;;4.12;100.00;100363.94;4922169;29;20186;-80
2022/02/08 04:53:33;;;;;;;2.10;1.60;;;;;;;4.31;100.00;100365.50;4921123;29;20534;-80
2022/02/08 04:56:10;;;;;;;3.30;1.63;;;;;;;4.23;100.00;100363.66;4921854;29;20197;-82
2022/02/08 04:58:45;;;;;;;3.33;1.90;;;;;;;4.27;100.00;100374.78;4904455;29;20220;-80
2022/02/08 05:01:20;;;;;;;4.80;1.77;;;;;;;4.22;100.00;100367.28;4935329;29;20194;-77
2022/02/08 05:44:39;;;;;;;3.80;1.80;;;;;;;3.94;100.00;100406.47;4921287;29;20230;-81
2022/02/08 05:47:07;;;;;;;3.13;1.70;;;;;;;3.83;100.00;100411.19;4934668;29;20190;-82
2022/02/08 05:49:42;;;;;;;4.50;1.73;;;;;;;3.95;100.00;100413.44;4935613;29;20190;-81
2022/02/08 05:54:36;;;;;;;5.43;1.70;;;;;;;3.91;100.00;100421.88;4935985;29;20214;-81
2022/02/08 05:57:03;;;;;;;4.03;1.77;;;;;;;3.94;100.00;100434.78;4921503;29;20202;-79
2022/02/08 05:59:30;;;;;;;4.13;1.80;;;;;;;3.77;100.00;100439.19;4935967;29;20224;-81
2022/02/08 06:01:57;;;;;;;4.50;1.80;;;;;;;3.83;100.00;100446.47;4935570;29;20582;-79
2022/02/08 06:04:40;;;;;;;4.80;2.17;;;;;;;3.67;100.00;100445.56;4904006;29;20190;-81
2022/02/08 06:07:12;;;;;;;3.00;1.67;;;;;;;3.74;100.00;100449.25;4935642;29;20197;-78
2022/02/08 06:09:39;;;;;;;4.47;1.70;;;;;;;3.78;100.00;100461.22;4921551;29;20203;-82
2022/02/08 06:12:06;;;;;;;5.60;2.00;;;;;;;3.65;100.00;100458.13;4919577;29;20216;-79
2022/02/08 06:14:35;;;;;;;5.90;2.10;;;;;;;3.63;100.00;100476.00;4904037;29;20214;-79
2022/02/08 06:17:02;;;;;;;5.23;2.00;;;;;;;3.71;100.00;100468.94;4935424;29;20216;-79
2022/02/08 06:19:29;;;;;;;6.50;2.10;;;;;;;3.57;100.00;100481.91;4935944;29;20490;-79
2022/02/08 06:21:56;;;;;;;4.87;2.07;;;;;;;3.53;100.00;100484.88;4920485;29;20478;-78
2022/02/08 06:24:22;;;;;;;3.63;2.00;;;;;;;3.52;100.00;100487.69;4921189;29;20616;-78
2022/02/08 06:26:49;;;;;;;6.93;2.40;;;;;;;3.54;100.00;100491.84;4935724;29;20289;-78
2022/02/08 06:29:21;;;;;;;5.17;2.30;;;;;;;3.53;100.00;100500.78;4919564;29;20194;-82
2022/02/08 06:31:48;;;;;;;5.77;2.10;;;;;;;3.62;100.00;100495.53;4919274;29;20200;-79
2022/02/08 06:34:19;;;;;;;4.07;2.03;;;;;;;3.57;100.00;100490.72;4935437;29;20214;-78
2022/02/08 06:36:48;;;;;;;6.07;2.30;;;;;;;3.47;100.00;100505.84;4903263;29;20190;-79
2022/02/08 06:39:19;;;;;;;7.03;2.40;;;;;;;3.65;100.00;100514.59;4935499;29;20194;-81
2022/02/08 06:41:51;;;;;;;5.33;1.80;;;;;;;3.63;100.00;100503.34;4917902;29;20194;-81
2022/02/08 06:44:17;;;;;;;5.83;1.93;;;;;;;3.47;100.00;100508.50;4935218;29;20206;-79
2022/02/08 06:46:44;;;;;;;6.03;2.20;;;;;;;3.68;100.00;100503.72;4934781;29;20221;-79
2022/02/08 06:49:11;;;;;;;4.50;2.13;;;;;;;3.66;100.00;100515.44;4934680;29;20241;-79
2022/02/08 06:51:38;;;;;;;5.43;2.20;;;;;;;3.68;100.00;100516.97;4934619;29;20218;-79
2022/02/08 06:54:04;;;;;;;4.20;1.90;;;;;;;3.80;100.00;100512.25;4919067;29;20206;-78
2022/02/08 06:56:32;;;;;;;6.50;2.07;;;;;;;3.77;100.00;100521.34;4903190;29;20198;-78
2022/02/08 06:59:06;;;;;;;6.03;2.17;;;;;;;3.89;100.00;100527.22;4918790;29;20201;-82
2022/02/08 07:01:35;;;;;;;3.77;2.10;;;;;;;3.93;100.00;100507.34;4923196;29;20194;-79
2022/02/08 07:04:05;;;;;;;5.43;2.27;;;;;;;4.19;100.00;100517.97;4923945;29;20198;-80
2022/02/08 07:06:32;;;;;;;8.03;2.73;;;;;;;4.16;100.00;100520.91;4922088;29;20229;-79
2022/02/08 07:08:59;;;;;;;4.97;2.23;;;;;;;4.25;100.00;100530.59;4923314;29;20264;-79
2022/02/08 07:11:26;;;;;;;4.50;2.30;;;;;;;4.32;100.00;100519.22;4922128;29;20273;-80
2022/02/08 07:13:53;;;;;;;6.73;1.80;;;;;;;4.32;100.00;100518.38;4938639;29;20265;-79
2022/02/08 07:16:21;;;;;;;4.47;1.90;;;;;;;4.38;100.00;100526.56;4937720;29;20205;-78
2022/02/08 07:18:48;;;;;;;4.87;1.90;;;;;;;4.37;100.00;100527.53;4905978;29;20198;-78
2022/02/08 07:21:14;;;;;;;6.70;2.10;;;;;;;4.52;100.00;100513.69;4922884;29;20197;-79
2022/02/08 07:23:41;;;;;;;4.47;2.27;;;;;;;4.65;100.00;100506.94;4923241;29;20535;-78
2022/02/08 07:26:08;;;;;;;4.37;2.00;;;;;;;4.68;100.00;100524.34;4906612;29;20201;-81
2022/02/08 07:28:44;;;;;;;5.43;2.13;;;;;;;4.78;100.00;100528.53;4936201;29;20202;-79
2022/02/08 07:31:17;;;;;;;3.90;1.97;;;;;;;4.86;100.00;100522.41;4922262;29;20186;-78
2022/02/08 07:33:54;;;;;;;2.87;1.87;;;;;;;4.93;99.01;100527.91;4892330;29;20213;-81
2022/02/08 07:36:38;;;;;;;5.20;2.20;;;;;;;5.04;98.84;100532.94;4939841;29;20190;-81
2022/02/08 07:39:08;;;;;;;4.73;1.90;;;;;;;5.07;98.65;100528.13;4927865;29;20178;-78
2022/02/08 07:41:36;;;;;;;7.40;2.97;;;;;;;5.02;100.00;100543.72;4908089;29;20254;-80
2022/02/08 07:44:09;;;;;;;5.23;2.00;;;;;;;5.15;96.31;100536.13;4907067;29;20195;-78
2022/02/08 07:46:46;;;;;;;4.90;2.40;;;;;;;5.17;96.35;100528.00;4922796;29;20249;-79
2022/02/08 07:49:14;;;;;;;5.10;2.07;;;;;;;5.29;95.54;100530.16;4923733;29;20230;-78
2022/02/08 07:51:42;;;;;;;7.33;2.90;;;;;;;5.35;93.55;100543.78;4939528;29;20312;-83
2022/02/08 07:54:08;;;;;;;5.30;2.23;;;;;;;5.41;93.87;100527.19;4909650;29;20629;-80
2022/02/08 07:56:35;;;;;;;5.67;2.30;;;;;;;5.59;91.77;100527.88;4916005;29;20202;-82
2022/02/08 07:59:02;;;;;;;6.53;2.10;;;;;;;5.71;89.33;100538.00;4907094;29;20591;-80
2022/02/08 08:01:29;;;;;;;3.43;1.63;;;;;;;5.88;87.63;100543.38;4920618;29;20226;-79
2022/02/08 08:03:56;;;;;;;4.53;1.67;;;;;;;6.04;86.78;100541.50;4904700;29;20613;-79
2022/02/08 08:06:23;;;;;;;5.30;1.87;;;;;;;6.13;84.57;100540.50;4905789;29;20553;-83
2022/02/08 08:08:52;;;;;;;4.93;1.40;;;;;;;6.34;83.33;100542.63;4919998;29;20484;-79
2022/02/08 08:11:22;;;;;;;3.90;1.70;;;;;;;6.39;82.22;100537.59;4919704;29;20274;-82
2022/02/08 08:14:02;;;;;;;5.07;1.57;;;;;;;6.60;80.23;100526.41;4889326;29;20266;-79
2022/02/08 08:21:24;;;;;;;5.17;1.83;;;;;;;7.52;73.76;100533.53;4919729;29;20395;-82
2022/02/08 08:23:52;;;;;;;3.87;1.37;;;;;;;7.64;69.65;100507.28;4889758;29;20194;-83
2022/02/08 08:26:20;;;;;;;5.47;1.70;;;;;;;7.98;68.49;100507.63;4920577;29;20223;-79
2022/02/08 08:28:47;;;;;;;5.80;2.40;;;;;;;8.06;68.45;100494.22;4889231;29;20273;-78
2022/02/08 08:31:14;;;;;;;4.97;1.37;;;;;;;8.23;66.93;100503.72;4903957;29;20250;-80
2022/02/08 08:34:01;;;;;;;3.70;1.50;;;;;;;8.23;67.45;100486.88;4904296;29;20207;-82
2022/02/08 08:36:29;;;;;;;5.30;1.87;;;;;;;8.35;67.17;100496.13;4903559;29;20599;-79
2022/02/08 08:38:56;;;;;;;2.43;1.40;;;;;;;8.33;66.05;100480.28;4902501;29;20227;-82
2022/02/08 08:52:48;;;;;;;2.93;1.23;;;;;;;7.89;62.08;100490.88;4860392;29;20267;-83
2022/02/08 08:55:17;;;;;;;4.20;1.30;;;;;;;7.65;59.98;100476.97;4884368;29;20212;-79
2022/02/08 08:57:44;;;;;;;2.40;1.13;;;;;;;7.70;60.48;100483.38;4885307;29;20338;-80
2022/02/08 09:00:12;;;;;;;3.27;1.10;;;;;;;7.77;60.99;100479.00;4884958;29;20183;-82
2022/02/08 09:02:39;;;;;;;3.57;1.37;;;;;;;7.57;58.87;100459.16;4884941;29;20199;-82
2022/02/08 09:05:10;;;;;;;2.30;1.13;;;;;;;7.64;57.95;100465.47;4899672;29;20195;-81
2022/02/08 09:07:40;;;;;;;3.63;1.00;;;;;;;7.59;55.99;100461.66;4870176;29;20188;-81
2022/02/08 09:10:08;;;;;;;4.37;1.07;;;;;;;7.64;55.64;100459.28;4885878;29;20203;-82
2022/02/08 09:12:57;;;;;;;4.37;0.90;;;;;;;7.69;56.67;100468.41;4886472;29;20272;-82
2022/02/08 09:15:47;;;;;;;2.23;1.00;;;;;;;7.66;56.83;100470.59;4872094;29;20203;-81
2022/02/08 09:21:26;;;;;;;3.00;0.90;;;;;;;7.91;56.75;100456.84;4885904;29;20196;-78
2022/02/08 09:28:59;;;;;;;3.13;1.30;;;;;;;8.37;57.60;100449.53;4885648;29;20216;-79
2022/02/08 09:31:26;;;;;;;6.07;1.90;;;;;;;8.22;60.37;100440.66;4885626;29;20236;-81
2022/02/08 09:33:54;;;;;;;8.13;2.80;;;;;;;8.43;58.49;100471.16;4884712;29;20521;-82
2022/02/08 09:36:25;;;;;;;4.63;1.73;;;;;;;8.54;58.91;100462.69;4882685;29;20214;-80
2022/02/08 09:38:53;;;;;;;4.60;1.00;;;;;;;8.53;59.49;100469.88;4867657;29;20321;-82
2022/02/08 09:41:22;;;;;;;5.67;1.50;;;;;;;8.76;59.35;100480.44;4881940;29;20591;-82
2022/02/08 09:43:50;;;;;;;4.47;1.70;;;;;;;8.92;59.99;100466.84;4883042;29;20259;-81
2022/02/08 09:46:18;;;;;;;4.23;1.50;;;;;;;8.79;60.09;100464.00;4881920;29;20279;-78
2022/02/08 09:48:53;;;;;;;4.20;1.40;;;;;;;8.67;60.58;100455.66;4880700;29;20742;-80
2022/02/08 09:51:22;;;;;;;4.13;1.23;;;;;;;8.90;60.63;100471.56;4901572;29;20210;-81
2022/02/08 09:53:50;;;;;;;5.17;1.40;;;;;;;8.93;59.97;100465.81;4885406;29;20301;-83
2022/02/08 09:56:16;;;;;;;3.37;1.20;;;;;;;9.04;60.65;100465.34;4894026;29;20562;-78
2022/02/08 09:58:43;;;;;;;2.63;1.07;;;;;;;9.12;59.49;100456.34;4881989;29;20198;-81
2022/02/08 10:01:12;;;;;;;3.43;1.10;;;;;;;9.22;59.77;100449.69;4881807;29;20251;-82
2022/02/08 10:04:01;;;;;;;3.43;1.30;;;;;;;9.63;58.93;100462.38;4881711;29;20266;-76
2022/02/08 10:06:29;;;;;;;4.03;1.07;;;;;;;9.40;56.58;100457.25;4881147;29;20202;-80
2022/02/08 10:09:01;;;;;;;2.33;1.07;;;;;;;9.52;56.99;100471.75;4865000;29;20203;-78
2022/02/08 10:11:42;;;;;;;6.37;1.10;;;;;;;9.23;56.91;100458.53;4865188;29;20200;-78
2022/02/08 10:14:41;;;;;;;3.60;0.90;;;;;;;9.40;57.31;100469.78;4881125;29;20282;-78
2022/02/08 10:20:41;;;;;;;3.93;1.20;;;;;;;9.30;57.52;100464.78;4881046;29;20267;-78
2022/02/08 10:22:49;;;;;;;4.10;1.10;;;;;;;9.50;57.13;100486.34;4864986;29;20211;-80
2022/02/08 10:25:44;;;;;;;2.97;1.10;;;;;;;9.19;57.53;100468.75;4880969;29;20194;-78
2022/02/08 10:28:31;;;;;;;3.87;0.90;;;;;;;9.42;59.13;100479.31;4881467;29;20202;-79
2022/02/08 10:31:08;;;;;;;2.97;1.00;;;;;;;9.32;58.64;100478.78;4881755;29;20295;-80
2022/02/08 10:39:16;;;;;;;5.00;1.33;;;;;;;9.52;60.50;100477.09;4885302;29;20220;-79
2022/02/08 10:41:47;;;;;;;4.37;1.63;;;;;;;9.54;60.26;100459.03;4869000;29;20180;-82
2022/02/08 10:44:14;;;;;;;3.87;1.00;;;;;;;9.76;59.27;100464.34;4884262;29;20194;-81
2022/02/08 10:46:41;;;;;;;2.33;1.00;;;;;;;9.71;60.58;100476.44;4885084;29;20203;-79
2022/02/08 10:49:10;;;;;;;4.13;1.40;;;;;;;9.73;59.90;100466.41;4884249;29;20644;-82
2022/02/08 10:51:46;;;;;;;5.50;1.30;;;;;;;9.69;59.74;100464.31;4885015;29;20696;-78
2022/02/08 10:54:31;;;;;;;4.57;1.30;;;;;;;9.91;59.74;100468.59;4885329;29;20679;-77
2022/02/08 10:57:11;;;;;;;2.07;0.87;;;;;;;9.54;59.07;100458.19;4870783;29;20186;-81
2022/02/08 10:59:49;;;;;;;2.33;0.73;;;;;;;9.69;60.07;100458.94;4868784;29;20187;-80
2022/02/08 11:02:25;;;;;;;3.03;0.90;;;;;;;9.85;57.86;100450.63;4885030;29;20183;-80
2022/02/08 11:04:59;;;;;;;3.47;0.80;;;;;;;10.09;58.14;100446.66;4891576;29;20187;-79
2022/02/08 11:15:48;;;;;;;2.33;0.90;;;;;;;10.00;56.22;100432.59;4902435;29;20603;-81
2022/02/08 11:18:33;;;;;;;3.37;0.93;;;;;;;10.10;57.00;100425.06;4903692;29;20251;-81
2022/02/08 11:21:59;;;;;;;3.00;0.90;;;;;;;10.05;55.35;100416.78;4886796;29;20207;-79
2022/02/08 11:26:41;;;;;;;3.27;0.90;;;;;;;9.83;57.03;100407.19;4902633;29;20189;-81
2022/02/08 11:29:33;;;;;;;3.40;0.97;;;;;;;9.92;58.25;100405.19;4872196;29;20198;-81
2022/02/08 11:32:35;;;;;;;3.53;0.83;;;;;;;9.65;60.17;100380.94;4886215;29;20584;-79
2022/02/08 12:07:37;;;;;;;1.33;0.60;;;;;;;9.75;62.78;100369.88;4914916;29;20282;-79
2022/02/08 12:54:48;;;;;;;2.17;0.60;;;;;;;10.32;55.48;100257.06;4902122;29;20179;-81
2022/02/08 13:25:02;;;;;;;1.47;0.40;;;;;;;10.83;53.67;100260.03;4914890;29;20186;-76
2022/02/08 14:06:20;;;;;;;1.77;0.50;;;;;;;10.85;51.66;100249.94;4899506;29;20278;-79
2022/02/08 14:09:42;;;;;;;0.80;0.33;;;;;;;10.79;51.19;100252.59;4900180;29;20195;-75
2022/02/08 14:20:04;;;;;;;0.50;0.40;;;;;;;10.56;53.26;100263.72;4900351;29;20193;-76
2022/02/08 14:22:32;;;;;;;1.00;0.40;;;;;;;10.52;53.22;100265.16;4899536;29;20270;-78
2022/02/08 14:25:19;;;;;;;1.50;0.47;;;;;;;10.56;53.87;100263.72;4915073;29;20195;-79
2022/02/08 14:33:52;;;;;;;0.63;0.40;;;;;;;10.35;55.37;100270.09;4873770;29;20209;-80
2022/02/08 15:09:32;;;;;;;0.93;0.40;;;;;;;9.83;56.56;100310.00;4899113;29;20257;-78
2022/02/08 15:12:10;;;;;;;0.50;0.40;;;;;;;9.63;56.94;100300.00;4899107;29;20225;-78
2022/02/08 15:14:51;;;;;;;0.83;0.40;;;;;;;9.79;56.59;100303.41;4913370;29;20243;-79
2022/02/08 15:17:18;;;;;;;0.80;0.50;;;;;;;9.63;56.36;100283.97;4912759;29;20189;-75
2022/02/08 15:19:47;;;;;;;1.50;0.40;;;;;;;9.60;57.21;100296.91;4900794;29;20614;-79
2022/02/08 15:22:16;;;;;;;1.43;0.70;;;;;;;9.53;57.78;100318.25;4887540;29;20204;-77
2022/02/08 15:24:42;;;;;;;0.60;0.53;;;;;;;9.62;56.11;100300.19;4887405;29;20206;-80
2022/02/08 15:27:12;;;;;;;1.63;0.40;;;;;;;9.59;55.33;100308.63;4886603;29;20549;-76
2022/02/08 15:29:38;;;;;;;0.40;0.40;;;;;;;9.62;53.75;100311.72;4902889;29;20693;-77
2022/02/08 15:32:10;;;;;;;0.67;0.50;;;;;;;9.59;52.25;100305.97;4886076;29;20195;-80
2022/02/08 15:34:37;;;;;;;0.70;0.50;;;;;;;9.58;52.42;100329.19;4901026;29;20578;-81
2022/02/08 15:37:04;;;;;;;0.50;0.40;;;;;;;9.49;52.76;100332.22;4901658;29;20508;-77
2022/02/08 15:39:32;;;;;;;0.53;0.50;;;;;;;9.56;52.50;100317.88;4917263;29;20187;-77
2022/02/08 15:41:58;;;;;;;1.00;0.40;;;;;;;9.60;52.76;100327.19;4901931;29;20198;-78
2022/02/08 15:44:26;;;;;;;0.97;0.70;;;;;;;9.52;53.22;100321.13;4917351;29;20194;-77
2022/02/08 15:46:54;;;;;;;1.47;0.50;;;;;;;9.47;53.54;100316.38;4902641;29;20241;-80
2022/02/08 15:49:21;;;;;;;1.37;0.50;;;;;;;9.33;53.63;100320.00;4902546;29;20237;-77
2022/02/08 15:51:56;;;;;;;0.30;0.30;;;;;;;9.34;54.16;100307.44;4899249;29;20214;-79
2022/02/08 15:54:37;;;;;;;0.50;0.50;;;;;;;9.23;55.21;100306.97;4889859;29;20606;-80
2022/02/08 16:05:14;;;;;;;0.73;0.23;;;;;;;9.09;59.65;100309.72;4878960;29;20250;-81
2022/02/08 16:08:07;;;;;;;1.10;0.50;;;;;;;9.06;61.03;100310.91;4889254;29;20187;-78
2022/02/08 16:10:47;;;;;;;0.70;0.40;;;;;;;9.00;63.34;100305.53;4901226;29;20181;-78
2022/02/08 16:18:56;;;;;;;1.07;0.50;;;;;;;8.86;65.50;100319.81;4883347;29;20538;-78
2022/02/08 16:29:16;;;;;;;1.67;0.60;;;;;;;8.87;67.43;100330.28;4883526;29;20223;-78
2022/02/08 16:32:07;;;;;;;3.13;0.90;;;;;;;8.64;68.77;100321.63;4883930;29;20237;-78
2022/02/08 16:49:24;;;;;;;1.80;0.70;;;;;;;8.69;67.53;100330.72;4889011;29;20290;-80
2022/02/08 16:57:13;;;;;;;1.00;0.70;;;;;;;8.47;69.43;100337.09;4882935;29;20506;-77
2022/02/08 16:59:44;;;;;;;2.57;0.80;;;;;;;8.52;68.65;100326.66;4869417;29;20228;-77
2022/02/08 17:02:17;;;;;;;2.73;0.70;;;;;;;8.34;70.33;100312.91;4897029;29;20193;-79
2022/02/08 17:04:44;;;;;;;2.58;1.00;;;;;;;8.22;71.11;100335.72;4883714;29;20456;-77
2022/02/08 17:07:10;;;;;;;1.23;0.73;;;;;;;8.16;71.51;100323.97;4884215;29;20195;-81
2022/02/08 17:09:47;;;;;;;1.23;0.80;;;;;;;8.28;70.56;100317.13;4884194;29;20195;-81
2022/02/08 17:12:27;;;;;;;1.27;0.67;;;;;;;8.22;72.11;100319.69;4913838;29;20220;-77
2022/02/08 17:47:49;;;;;;;1.52;0.88;;;;;;;8.35;79.99;100351.94;4882815;29;20535;-76
2022/02/08 17:50:18;;;;;;;2.10;1.10;;;;;;;8.26;80.63;100335.16;4899150;29;20448;-77
2022/02/08 17:52:47;;;;;;;1.10;0.77;;;;;;;8.22;80.35;100341.88;4898352;29;20202;-78
2022/02/08 17:55:15;;;;;;;1.80;1.30;;;;;;;8.30;80.35;100324.97;4898346;29;20197;-77
2022/02/08 17:57:42;;;;;;;1.57;0.73;;;;;;;8.50;77.44;100360.72;4899024;29;20204;-76
2022/02/08 18:00:11;;;;;;;1.43;0.90;;;;;;;8.44;77.92;100344.66;4882894;29;20239;-76
2022/02/08 18:02:40;;;;;;;1.17;0.70;;;;;;;8.40;78.72;100347.69;4914149;29;20270;-76
2022/02/08 18:05:08;;;;;;;3.57;0.80;;;;;;;8.31;80.25;100342.63;4899322;29;20618;-77
2022/02/08 18:07:36;;;;;;;3.43;1.50;;;;;;;8.44;77.30;100325.94;4899759;29;20317;-79
2022/02/08 18:10:08;;;;;;;1.60;0.80;;;;;;;8.61;75.64;100341.53;4899042;29;20534;-77
2022/02/08 18:12:36;;;;;;;1.77;1.00;;;;;;;8.39;77.46;100331.88;4883263;29;20190;-78
2022/02/08 18:15:12;;;;;;;1.10;0.90;;;;;;;8.42;77.72;100328.81;4906612;29;20203;-77
2022/02/08 18:17:44;;;;;;;2.03;0.73;;;;;;;8.49;77.47;100315.53;4867114;29;20194;-74
2022/02/08 18:20:26;;;;;;;1.37;0.60;;;;;;;8.56;76.58;100311.91;4866817;29;20236;-78
2022/02/08 18:23:13;;;;;;;0.83;0.50;;;;;;;8.63;74.65;100317.31;4853137;29;20568;-77
2022/02/08 18:28:38;;;;;;;0.80;0.63;;;;;;;8.73;74.08;100299.13;4900874;29;20194;-77
2022/02/08 19:07:17;;;;;;;1.53;0.60;;;;;;;8.79;80.90;100341.09;4872267;29;20512;-79
2022/02/08 19:12:25;;;;;;;1.87;0.70;;;;;;;8.89;81.49;100343.47;4870367;29;20592;-79